createdAt,value
2022-11-27T00:01:10.024Z,27.00
2022-11-27T00:03:37.438Z,22.65
2022-11-27T00:06:04.899Z,22.40
2022-11-27T00:08:32.131Z,23.10
2022-11-27T00:11:04.992Z,20.83
2022-11-27T00:13:32.115Z,24.80
2022-11-27T00:15:59.389Z,24.88
2022-11-27T00:18:26.786Z,24.63
2022-11-27T00:20:54.103Z,20.88
2022-11-27T00:23:21.234Z,22.17
2022-11-27T00:25:54.643Z,28.80
2022-11-27T00:28:22.007Z,23.65
2022-11-27T00:30:49.212Z,23.85
2022-11-27T00:33:16.397Z,24.05
2022-11-27T00:35:43.607Z,24.08
2022-11-27T00:38:10.838Z,18.50
2022-11-27T00:40:38.037Z,24.63
2022-11-27T00:43:05.175Z,23.45
2022-11-27T00:45:32.331Z,23.77
2022-11-27T00:47:59.490Z,20.83
2022-11-27T00:50:26.800Z,23.80
2022-11-27T00:52:53.952Z,26.67
2022-11-27T00:55:21.170Z,20.90
2022-11-27T00:57:48.358Z,22.55
2022-11-27T01:00:15.784Z,18.13
2022-11-27T01:02:43.021Z,22.45
2022-11-27T01:05:10.306Z,22.63
2022-11-27T01:07:37.695Z,24.98
2022-11-27T01:10:05.080Z,18.25
2022-11-27T01:12:32.820Z,17.02
2022-11-27T01:14:59.981Z,19.23
2022-11-27T01:17:27.160Z,24.77
2022-11-27T01:19:54.375Z,19.65
2022-11-27T01:22:21.551Z,21.02
2022-11-27T01:24:48.758Z,22.30
2022-11-27T01:27:16.047Z,26.75
2022-11-27T01:29:43.222Z,22.95
2022-11-27T01:32:10.505Z,21.95
2022-11-27T01:34:37.918Z,22.15
2022-11-27T01:37:05.404Z,24.52
2022-11-27T01:39:32.614Z,19.80
2022-11-27T01:41:59.978Z,21.15
2022-11-27T01:44:27.301Z,21.17
2022-11-27T01:46:56.862Z,17.45
2022-11-27T01:49:31.606Z,29.52
2022-11-27T01:52:01.715Z,28.95
2022-11-27T01:54:42.625Z,27.42
2022-11-27T01:57:16.200Z,21.75
2022-11-27T01:59:43.564Z,17.95
2022-11-27T02:02:10.840Z,24.73
2022-11-27T02:04:38.276Z,30.17
2022-11-27T02:07:05.773Z,23.63
2022-11-27T02:09:33.438Z,21.13
2022-11-27T02:12:15.457Z,29.80
2022-11-27T02:14:55.659Z,23.13
2022-11-27T02:17:43.970Z,28.85
2022-11-27T02:20:14.216Z,29.40
2022-11-27T02:23:00.269Z,23.25
2022-11-27T02:25:32.229Z,22.30
2022-11-27T02:28:22.408Z,19.95
2022-11-27T02:30:53.541Z,23.65
2022-11-27T02:33:21.516Z,21.85
2022-11-27T02:35:56.549Z,25.10
2022-11-27T02:38:41.716Z,23.15
2022-11-27T02:41:41.393Z,16.73
2022-11-27T02:44:09.999Z,26.75
2022-11-27T02:46:37.683Z,21.55
2022-11-27T02:49:08.183Z,27.33
2022-11-27T02:51:44.150Z,30.15
2022-11-27T02:54:14.592Z,33.70
2022-11-27T02:56:42.660Z,21.17
2022-11-27T02:59:11.813Z,24.85
2022-11-27T03:01:43.847Z,23.48
2022-11-27T03:04:14.085Z,24.27
2022-11-27T03:06:45.668Z,16.73
2022-11-27T03:09:23.517Z,21.48
2022-11-27T03:11:50.809Z,18.92
2022-11-27T03:14:20.341Z,18.48
2022-11-27T03:17:01.165Z,18.95
2022-11-27T03:19:57.679Z,23.45
2022-11-27T03:22:26.847Z,16.25
2022-11-27T03:24:54.349Z,22.00
2022-11-27T03:27:29.847Z,20.58
2022-11-27T03:29:58.833Z,18.92
2022-11-27T03:32:27.193Z,23.38
2022-11-27T03:34:54.446Z,18.30
2022-11-27T03:37:22.420Z,18.73
2022-11-27T03:39:49.835Z,22.80
2022-11-27T03:42:35.979Z,19.25
2022-11-27T03:45:03.167Z,16.38
2022-11-27T03:47:30.354Z,18.27
2022-11-27T03:49:57.645Z,22.80
2022-11-27T03:52:28.844Z,19.98
2022-11-27T03:55:02.161Z,18.25
2022-11-27T03:57:41.663Z,13.20
2022-11-27T04:00:09.630Z,16.55
2022-11-27T04:02:51.364Z,15.73
2022-11-27T04:05:18.935Z,17.83
2022-11-27T04:07:46.213Z,17.55
2022-11-27T04:10:14.259Z,18.23
2022-11-27T04:12:41.538Z,19.58
2022-11-27T04:15:09.025Z,18.70
2022-11-27T04:17:36.417Z,19.25
2022-11-27T04:20:04.108Z,23.15
2022-11-27T04:22:31.571Z,17.70
2022-11-27T04:24:58.888Z,16.33
2022-11-27T04:27:26.081Z,19.15
2022-11-27T04:29:53.320Z,19.98
2022-11-27T04:32:20.502Z,26.08
2022-11-27T04:34:47.741Z,16.30
2022-11-27T04:37:14.977Z,24.30
2022-11-27T04:39:42.236Z,19.02
2022-11-27T04:42:09.467Z,21.77
2022-11-27T04:44:37.048Z,17.92
2022-11-27T04:47:04.489Z,17.73
2022-11-27T04:49:31.866Z,16.90
2022-11-27T04:51:59.059Z,18.50
2022-11-27T04:54:26.207Z,19.15
2022-11-27T04:56:53.368Z,14.13
2022-11-27T04:59:21.170Z,18.88
2022-11-27T05:01:48.406Z,18.00
2022-11-27T05:04:15.674Z,16.15
2022-11-27T05:06:42.852Z,18.52
2022-11-27T05:09:10.074Z,16.17
2022-11-27T05:11:37.358Z,15.07
2022-11-27T05:14:20.808Z,14.93
2022-11-27T05:16:49.676Z,29.15
2022-11-27T05:19:17.685Z,14.57
2022-11-27T05:21:45.713Z,15.13
2022-11-27T05:24:13.771Z,15.10
2022-11-27T05:26:41.525Z,14.88
2022-11-27T05:29:09.147Z,20.02
2022-11-27T05:31:36.880Z,21.15
2022-11-27T05:34:04.274Z,16.52
2022-11-27T05:36:31.834Z,17.25
2022-11-27T05:38:59.132Z,21.88
2022-11-27T05:41:26.327Z,14.93
2022-11-27T05:43:53.625Z,22.00
2022-11-27T05:46:21.611Z,20.27
2022-11-27T05:48:48.949Z,17.33
2022-11-27T05:51:16.712Z,18.00
2022-11-27T05:53:43.956Z,15.93
2022-11-27T05:56:12.638Z,14.57
2022-11-27T05:58:40.419Z,16.15
2022-11-27T06:01:08.286Z,14.55
2022-11-27T06:03:35.866Z,13.73
2022-11-27T06:06:13.439Z,17.38
2022-11-27T06:08:41.327Z,19.52
2022-11-27T06:11:09.505Z,16.95
2022-11-27T06:13:36.782Z,15.30
2022-11-27T06:16:12.433Z,20.98
2022-11-27T06:18:40.161Z,19.25
2022-11-27T06:21:11.881Z,26.38
2022-11-27T06:23:39.067Z,16.17
2022-11-27T06:26:10.986Z,18.08
2022-11-27T06:28:38.493Z,15.90
2022-11-27T06:31:06.944Z,20.60
2022-11-27T06:33:34.540Z,17.17
2022-11-27T06:36:02.046Z,19.88
2022-11-27T06:38:29.540Z,15.85
2022-11-27T06:40:56.744Z,30.95
2022-11-27T06:43:24.035Z,17.63
2022-11-27T06:45:58.574Z,24.35
2022-11-27T06:48:25.905Z,26.27
2022-11-27T06:50:53.148Z,18.02
2022-11-27T06:53:20.662Z,20.73
2022-11-27T06:55:47.969Z,24.75
2022-11-27T06:58:15.200Z,22.52
2022-11-27T07:00:42.403Z,23.52
2022-11-27T07:03:09.748Z,20.52
2022-11-27T07:05:37.207Z,30.95
2022-11-27T07:08:04.571Z,24.67
2022-11-27T07:10:34.175Z,35.15
2022-11-27T07:13:01.583Z,31.40
2022-11-27T07:15:28.775Z,29.17
2022-11-27T07:17:55.971Z,23.52
2022-11-27T07:20:23.217Z,20.42
2022-11-27T07:22:50.646Z,24.65
2022-11-27T07:25:17.879Z,27.55
2022-11-27T07:27:50.402Z,19.55
2022-11-27T07:30:18.248Z,33.80
2022-11-27T07:32:45.468Z,31.10
2022-11-27T07:35:12.799Z,26.42
2022-11-27T07:37:42.066Z,24.05
2022-11-27T07:40:09.557Z,24.38
2022-11-27T07:42:38.480Z,19.52
2022-11-27T07:45:07.220Z,27.60
2022-11-27T07:47:34.379Z,33.45
2022-11-27T07:50:01.756Z,34.85
2022-11-27T07:52:29.097Z,27.45
2022-11-27T07:54:56.250Z,35.47
2022-11-27T07:57:23.576Z,37.05
2022-11-27T07:59:50.739Z,62.42
2022-11-27T08:02:18.005Z,37.20
2022-11-27T08:04:45.309Z,50.33
2022-11-27T08:07:13.045Z,48.25
2022-11-27T08:09:40.339Z,50.83
2022-11-27T08:12:08.096Z,55.85
2022-11-27T08:14:35.375Z,106.80
2022-11-27T08:17:03.033Z,65.20
2022-11-27T08:19:30.356Z,39.45
2022-11-27T08:21:58.440Z,34.55
2022-11-27T08:24:25.665Z,37.72
2022-11-27T08:26:52.833Z,27.45
2022-11-27T08:29:20.079Z,33.60
2022-11-27T08:31:47.296Z,33.55
2022-11-27T08:34:14.582Z,27.55
2022-11-27T08:36:41.862Z,24.95
2022-11-27T08:39:09.134Z,30.35
2022-11-27T08:41:36.360Z,33.05
2022-11-27T08:44:06.785Z,37.75
2022-11-27T08:46:36.697Z,39.00
2022-11-27T08:49:03.885Z,34.88
2022-11-27T08:51:31.073Z,42.30
2022-11-27T08:53:58.327Z,38.17
2022-11-27T08:56:26.253Z,48.35
2022-11-27T08:58:53.498Z,46.35
2022-11-27T09:01:22.012Z,47.70
2022-11-27T09:03:49.347Z,44.55
2022-11-27T09:06:18.737Z,34.97
2022-11-27T09:08:46.366Z,32.92
2022-11-27T09:11:14.339Z,54.65
2022-11-27T09:13:42.459Z,48.10
2022-11-27T09:16:11.111Z,90.22
2022-11-27T09:18:38.818Z,59.08
2022-11-27T09:21:07.621Z,57.80
2022-11-27T09:23:34.853Z,54.10
2022-11-27T09:26:03.157Z,47.05
2022-11-27T09:28:31.839Z,47.97
2022-11-27T09:30:59.992Z,58.40
2022-11-27T09:33:27.790Z,57.05
2022-11-27T09:35:57.512Z,52.40
2022-11-27T09:38:24.833Z,52.60
2022-11-27T09:40:53.757Z,75.43
2022-11-27T09:43:27.426Z,62.15
2022-11-27T09:45:57.763Z,45.83
2022-11-27T09:48:33.000Z,46.70
2022-11-27T09:51:02.807Z,38.08
2022-11-27T09:53:33.673Z,38.65
2022-11-27T09:56:03.367Z,38.65
2022-11-27T09:58:41.443Z,28.75
2022-11-27T10:01:17.118Z,35.33
2022-11-27T10:03:45.456Z,35.50
2022-11-27T10:06:12.598Z,32.22
2022-11-27T10:08:45.380Z,28.05
2022-11-27T10:11:24.186Z,25.90
2022-11-27T10:13:56.898Z,25.67
2022-11-27T10:16:28.458Z,18.70
2022-11-27T10:18:58.184Z,18.95
2022-11-27T10:21:31.766Z,17.15
2022-11-27T10:26:30.022Z,18.50
2022-11-27T10:29:07.324Z,13.02
2022-11-27T10:31:37.685Z,15.32
2022-11-27T10:34:19.014Z,14.43
2022-11-27T10:36:48.635Z,18.90
2022-11-27T10:39:41.210Z,13.38
2022-11-27T10:42:11.306Z,15.18
2022-11-27T10:44:40.679Z,11.07
2022-11-27T10:47:13.780Z,9.80
2022-11-27T10:49:41.987Z,9.95
2022-11-27T10:52:16.679Z,8.68
2022-11-27T10:54:44.651Z,7.22
2022-11-27T10:57:30.626Z,6.63
2022-11-27T11:00:10.372Z,6.43
2022-11-27T11:02:39.213Z,6.72
2022-11-27T11:08:14.835Z,6.85
2022-11-27T11:10:50.355Z,6.28
2022-11-27T11:13:19.813Z,7.45
2022-11-27T11:15:53.109Z,3.25
2022-11-27T11:18:28.445Z,5.43
2022-11-27T11:20:57.372Z,7.03
2022-11-27T11:23:26.794Z,5.22
2022-11-27T11:25:55.040Z,4.45
2022-11-27T11:28:22.624Z,4.00
2022-11-27T11:30:54.190Z,3.63
2022-11-27T11:33:21.597Z,5.10
2022-11-27T11:35:53.943Z,4.85
2022-11-27T11:38:24.475Z,5.22
2022-11-27T11:41:00.242Z,6.53
2022-11-27T11:43:28.694Z,3.42
2022-11-27T11:45:57.102Z,4.47
2022-11-27T11:48:25.656Z,5.85
2022-11-27T11:50:58.845Z,4.32
2022-11-27T11:53:32.247Z,5.57
2022-11-27T11:56:18.415Z,4.55
2022-11-27T11:58:54.975Z,5.22
2022-11-27T12:01:41.666Z,5.88
2022-11-27T12:04:14.727Z,4.13
2022-11-27T12:06:45.272Z,5.88
2022-11-27T12:09:18.662Z,7.40
2022-11-27T12:11:48.815Z,7.63
2022-11-27T12:14:36.892Z,4.93
2022-11-27T12:17:19.312Z,7.43
2022-11-27T12:19:52.993Z,6.25
2022-11-27T12:22:30.672Z,5.70
2022-11-27T12:25:04.148Z,4.38
2022-11-27T12:27:45.200Z,8.45
2022-11-27T12:30:18.516Z,4.13
2022-11-27T12:33:04.486Z,4.00
2022-11-27T12:35:37.899Z,4.85
2022-11-27T12:38:17.345Z,6.07
2022-11-27T12:40:47.370Z,6.82
2022-11-27T12:43:24.748Z,6.30
2022-11-27T12:45:56.462Z,5.63
2022-11-27T12:48:32.884Z,6.90
2022-11-27T12:51:07.732Z,4.70
2022-11-27T12:53:42.220Z,3.95
2022-11-27T12:56:11.384Z,5.57
2022-11-27T12:58:40.834Z,4.15
2022-11-27T13:01:11.022Z,3.88
2022-11-27T13:03:57.214Z,4.78
2022-11-27T13:06:27.059Z,9.05
2022-11-27T13:08:59.894Z,4.18
2022-11-27T13:11:30.149Z,13.50
2022-11-27T13:14:04.156Z,4.40
2022-11-27T13:16:34.157Z,3.95
2022-11-27T13:19:14.325Z,3.58
2022-11-27T13:21:42.166Z,5.40
2022-11-27T13:24:13.300Z,5.50
2022-11-27T13:26:45.676Z,3.60
2022-11-27T13:29:45.407Z,4.05
2022-11-27T13:32:24.560Z,4.70
2022-11-27T13:34:52.437Z,3.95
2022-11-27T13:37:27.157Z,8.93
2022-11-27T13:40:03.938Z,4.07
2022-11-27T13:42:34.144Z,3.50
2022-11-27T13:45:03.167Z,4.88
2022-11-27T13:47:31.139Z,4.35
2022-11-27T13:49:59.633Z,6.18
2022-11-27T13:52:27.097Z,6.57
2022-11-27T13:55:02.067Z,14.90
2022-11-27T13:57:30.158Z,3.88
2022-11-27T13:59:59.163Z,4.45
2022-11-27T14:02:26.875Z,8.52
2022-11-27T14:04:56.411Z,8.80
2022-11-27T14:07:24.354Z,4.95
2022-11-27T14:09:56.447Z,4.05
2022-11-27T14:12:23.579Z,4.43
2022-11-27T14:14:59.878Z,4.03
2022-11-27T14:17:28.501Z,8.65
2022-11-27T14:20:00.427Z,8.20
2022-11-27T14:22:33.627Z,16.08
2022-11-27T14:25:00.845Z,5.13
2022-11-27T14:27:33.611Z,4.80
2022-11-27T14:30:11.947Z,6.50
2022-11-27T14:32:39.280Z,5.32
2022-11-27T14:35:19.720Z,6.90
2022-11-27T14:37:46.963Z,7.28
2022-11-27T14:40:15.464Z,8.05
2022-11-27T14:42:42.653Z,5.18
2022-11-27T14:45:20.948Z,8.00
2022-11-27T14:47:50.488Z,6.82
2022-11-27T14:50:18.338Z,4.95
2022-11-27T14:52:47.934Z,5.30
2022-11-27T14:55:18.643Z,5.25
2022-11-27T14:57:47.713Z,4.90
2022-11-27T15:00:15.092Z,4.88
2022-11-27T15:02:42.392Z,5.80
2022-11-27T15:05:17.431Z,6.78
2022-11-27T15:07:50.365Z,6.18
2022-11-27T15:12:47.764Z,6.82
2022-11-27T15:15:18.955Z,6.15
2022-11-27T15:17:48.013Z,8.55
2022-11-27T15:20:16.494Z,8.20
2022-11-27T15:22:51.164Z,8.23
2022-11-27T15:25:35.774Z,6.45
2022-11-27T15:28:03.270Z,9.80
2022-11-27T15:30:30.529Z,7.68
2022-11-27T15:32:57.823Z,6.80
2022-11-27T15:35:26.773Z,6.53
2022-11-27T15:37:55.397Z,6.95
2022-11-27T15:40:28.832Z,7.03
2022-11-27T15:45:23.279Z,6.78
2022-11-27T15:47:58.200Z,6.50
2022-11-27T15:50:28.215Z,8.05
2022-11-27T15:52:55.474Z,6.75
2022-11-27T15:55:23.186Z,8.85
2022-11-27T15:57:50.345Z,7.35
2022-11-27T16:00:17.849Z,7.65
2022-11-27T16:02:45.278Z,9.07
2022-11-27T16:05:12.642Z,7.97
2022-11-27T16:07:40.025Z,8.55
2022-11-27T16:10:07.635Z,10.23
2022-11-27T16:12:35.074Z,7.28
2022-11-27T16:15:02.497Z,8.98
2022-11-27T16:17:29.736Z,7.70
2022-11-27T16:19:57.448Z,7.95
2022-11-27T16:22:24.748Z,8.35
2022-11-27T16:24:52.018Z,7.68
2022-11-27T16:27:19.269Z,8.27
2022-11-27T16:29:46.512Z,7.30
2022-11-27T16:32:13.924Z,9.55
2022-11-27T16:34:41.511Z,9.35
2022-11-27T16:37:08.993Z,8.43
2022-11-27T16:39:36.302Z,21.13
2022-11-27T16:42:03.573Z,7.80
2022-11-27T16:44:30.739Z,7.78
2022-11-27T16:46:57.966Z,10.10
2022-11-27T16:49:25.159Z,6.68
2022-11-27T16:51:52.386Z,8.75
2022-11-27T16:54:19.601Z,7.28
2022-11-27T16:56:49.830Z,8.88
2022-11-27T16:59:17.183Z,9.80
2022-11-27T17:01:44.872Z,7.32
2022-11-27T17:04:15.835Z,7.70
2022-11-27T17:06:43.056Z,6.95
2022-11-27T17:09:10.274Z,8.70
2022-11-27T17:11:38.102Z,8.73
2022-11-27T17:14:08.210Z,8.90
2022-11-27T17:16:35.808Z,9.75
2022-11-27T17:19:03.107Z,9.60
2022-11-27T17:21:32.391Z,6.85
2022-11-27T17:24:14.348Z,6.15
2022-11-27T17:26:45.173Z,6.63
2022-11-27T17:29:13.324Z,6.53
2022-11-27T17:31:40.757Z,6.57
2022-11-27T17:34:08.425Z,8.88
2022-11-27T17:36:37.338Z,6.25
2022-11-27T17:39:05.721Z,7.70
2022-11-27T17:41:33.153Z,6.00
2022-11-27T17:44:00.538Z,6.50
2022-11-27T17:46:28.696Z,7.88
2022-11-27T17:48:58.998Z,6.72
2022-11-27T17:51:28.865Z,6.38
2022-11-27T17:53:58.263Z,7.38
2022-11-27T17:56:25.552Z,7.82
2022-11-27T17:58:53.221Z,6.50
2022-11-27T18:01:21.989Z,9.25
2022-11-27T18:03:49.416Z,6.20
2022-11-27T18:06:18.290Z,6.82
2022-11-27T18:08:45.863Z,5.90
2022-11-27T18:11:15.002Z,6.15
2022-11-27T18:13:42.384Z,7.15
2022-11-27T18:16:11.669Z,7.32
2022-11-27T18:18:39.112Z,6.60
2022-11-27T18:21:14.078Z,6.18
2022-11-27T18:24:14.482Z,6.10
2022-11-27T18:26:52.444Z,6.45
2022-11-27T18:29:19.760Z,7.32
2022-11-27T18:31:47.679Z,7.03
2022-11-27T18:34:14.974Z,8.85
2022-11-27T18:36:42.346Z,8.07
2022-11-27T18:39:09.646Z,6.50
2022-11-27T18:41:37.518Z,6.93
2022-11-27T18:44:04.869Z,8.35
2022-11-27T18:46:32.108Z,7.80
2022-11-27T18:48:59.476Z,7.47
2022-11-27T18:51:26.743Z,7.55
2022-11-27T18:53:55.871Z,7.13
2022-11-27T18:56:24.516Z,7.30
2022-11-27T18:58:52.181Z,8.27
2022-11-27T19:01:21.171Z,9.48
2022-11-27T19:03:48.774Z,8.93
2022-11-27T19:06:16.872Z,8.00
2022-11-27T19:08:44.631Z,8.48
2022-11-27T19:11:13.030Z,8.73
2022-11-27T19:13:40.942Z,8.50
2022-11-27T19:16:08.814Z,12.05
2022-11-27T19:18:37.244Z,10.68
2022-11-27T19:21:18.302Z,9.75
2022-11-27T19:23:45.558Z,10.27
2022-11-27T19:26:14.203Z,11.52
2022-11-27T19:28:41.790Z,10.60
2022-11-27T19:31:10.859Z,10.35
2022-11-27T19:33:38.221Z,9.35
2022-11-27T19:36:08.558Z,10.68
2022-11-27T19:38:36.411Z,9.57
2022-11-27T19:41:04.295Z,11.82
2022-11-27T19:43:31.602Z,13.70
2022-11-27T19:45:58.956Z,10.68
2022-11-27T19:48:26.284Z,11.27
2022-11-27T19:50:53.828Z,10.65
2022-11-27T19:53:22.956Z,9.60
2022-11-27T19:55:54.585Z,11.23
2022-11-27T19:58:22.015Z,10.13
2022-11-27T20:00:49.295Z,10.95
2022-11-27T20:03:16.575Z,12.18
2022-11-27T20:05:43.816Z,10.13
2022-11-27T20:08:11.107Z,11.00
2022-11-27T20:10:38.349Z,10.70
2022-11-27T20:13:05.494Z,10.52
2022-11-27T20:15:32.859Z,9.57
2022-11-27T20:18:00.556Z,10.68
2022-11-27T20:20:32.704Z,10.18
2022-11-27T20:25:28.425Z,11.38
2022-11-27T20:27:57.294Z,12.43
2022-11-27T20:30:24.471Z,13.52
2022-11-27T20:32:54.599Z,10.13
2022-11-27T20:35:21.771Z,12.90
2022-11-27T20:37:48.964Z,12.32
2022-11-27T20:40:16.402Z,12.57
2022-11-27T20:42:43.533Z,11.40
2022-11-27T20:45:10.865Z,13.80
2022-11-27T20:47:38.030Z,10.98
2022-11-27T20:50:06.049Z,10.05
2022-11-27T20:52:33.271Z,10.55
2022-11-27T20:55:00.459Z,9.68
2022-11-27T20:57:27.862Z,10.75
2022-11-27T20:59:55.527Z,12.18
2022-11-27T21:02:22.713Z,10.57
2022-11-27T21:04:50.221Z,10.82
2022-11-27T21:07:17.466Z,10.27
2022-11-27T21:09:44.822Z,10.05
2022-11-27T21:12:13.707Z,8.05
2022-11-27T21:14:40.944Z,8.05
2022-11-27T21:17:08.453Z,8.60
2022-11-27T21:19:35.675Z,8.65
2022-11-27T21:22:02.877Z,9.45
2022-11-27T21:24:30.196Z,9.68
2022-11-27T21:26:57.457Z,9.55
2022-11-27T21:29:27.753Z,9.02
2022-11-27T21:31:57.126Z,10.95
2022-11-27T21:34:25.148Z,7.95
2022-11-27T21:36:52.295Z,9.82
2022-11-27T21:39:23.827Z,7.05
2022-11-27T21:41:52.265Z,8.60
2022-11-27T21:44:20.440Z,7.90
2022-11-27T21:46:47.610Z,7.43
2022-11-27T21:49:15.980Z,8.93
2022-11-27T21:51:43.459Z,9.07
2022-11-27T21:54:12.834Z,7.05
2022-11-27T21:56:40.815Z,7.10
2022-11-27T21:59:09.448Z,6.80
2022-11-27T22:01:36.978Z,9.60
2022-11-27T22:04:04.595Z,7.35
2022-11-27T22:06:36.485Z,7.85
2022-11-27T22:09:04.366Z,7.18
2022-11-27T22:11:31.750Z,8.60
2022-11-27T22:14:00.351Z,6.82
2022-11-27T22:16:29.051Z,7.30
2022-11-27T22:18:57.420Z,8.13
2022-11-27T22:21:25.123Z,8.75
2022-11-27T22:23:52.373Z,8.82
2022-11-27T22:26:20.783Z,7.93
2022-11-27T22:28:48.383Z,12.80
2022-11-27T22:31:20.179Z,9.02
2022-11-27T22:33:47.678Z,8.23
2022-11-27T22:36:19.220Z,7.18
2022-11-27T22:38:48.925Z,8.38
2022-11-27T22:41:16.433Z,8.05
2022-11-27T22:43:44.691Z,9.82
2022-11-27T22:46:13.861Z,12.93
2022-11-27T22:48:41.114Z,10.15
2022-11-27T22:51:08.530Z,7.70
2022-11-27T22:53:35.787Z,9.80
2022-11-27T22:56:10.617Z,8.50
2022-11-27T22:58:41.397Z,10.23
2022-11-27T23:01:10.918Z,9.32
2022-11-27T23:03:38.851Z,9.00
2022-11-27T23:06:11.505Z,7.60
2022-11-27T23:08:39.512Z,8.97
2022-11-27T23:11:07.190Z,9.07
2022-11-27T23:13:34.390Z,8.73
2022-11-27T23:16:04.030Z,8.45
2022-11-27T23:18:31.666Z,8.80
2022-11-27T23:20:58.925Z,7.68
2022-11-27T23:23:26.215Z,10.63
2022-11-27T23:25:53.418Z,9.55
2022-11-27T23:28:20.579Z,9.02
2022-11-27T23:30:50.297Z,7.85
2022-11-27T23:33:26.402Z,9.18
2022-11-27T23:36:00.370Z,6.75
2022-11-27T23:38:28.321Z,7.07
2022-11-27T23:40:56.119Z,6.72
2022-11-27T23:43:23.685Z,8.52
2022-11-27T23:45:50.906Z,7.35
2022-11-27T23:48:18.117Z,7.47
2022-11-27T23:50:45.340Z,6.25
2022-11-27T23:53:12.590Z,9.27
2022-11-27T23:55:39.778Z,7.68
2022-11-27T23:58:07.097Z,7.65
